createdAt,value
2023-02-11T00:00:07.419Z,102435.22
2023-02-11T00:03:14.751Z,102430.81
2023-02-11T00:06:23.776Z,102436.00
2023-02-11T00:09:31.932Z,102429.94
2023-02-11T00:12:39.971Z,102430.75
2023-02-11T00:15:49.470Z,102419.78
2023-02-11T00:18:55.815Z,102412.94
2023-02-11T00:22:03.038Z,102410.91
2023-02-11T00:25:11.502Z,102417.06
2023-02-11T00:28:18.887Z,102417.16
2023-02-11T00:31:27.586Z,102411.12
2023-02-11T00:34:37.082Z,102416.19
2023-02-11T00:37:47.645Z,102403.34
2023-02-11T00:40:54.751Z,102408.59
2023-02-11T00:44:02.604Z,102409.56
2023-02-11T00:47:11.626Z,102413.69
2023-02-11T00:50:20.883Z,102416.31
2023-02-11T00:53:29.966Z,102414.66
2023-02-11T00:56:36.892Z,102404.34
2023-02-11T00:59:46.909Z,102402.63
2023-02-11T01:02:56.974Z,102397.47
2023-02-11T01:06:07.129Z,102399.25
2023-02-11T01:09:19.731Z,102387.19
2023-02-11T01:12:26.241Z,102379.50
2023-02-11T01:15:32.765Z,102378.78
2023-02-11T01:18:43.562Z,102371.88
2023-02-11T01:21:58.475Z,102368.50
2023-02-11T01:25:05.534Z,102351.22
2023-02-11T01:28:18.353Z,102352.03
2023-02-11T01:31:25.835Z,102357.22
2023-02-11T01:34:35.028Z,102358.81
2023-02-11T01:37:44.224Z,102352.88
2023-02-11T01:40:58.314Z,102353.03
2023-02-11T01:44:28.178Z,102342.75
2023-02-11T01:47:37.091Z,102342.72
2023-02-11T01:50:50.404Z,102353.19
2023-02-11T01:54:16.880Z,102355.75
2023-02-11T01:57:29.438Z,102349.78
2023-02-11T02:00:39.456Z,102345.16
2023-02-11T02:03:54.274Z,102347.75
2023-02-11T02:07:07.673Z,102341.87
2023-02-11T02:10:18.359Z,102341.19
2023-02-11T02:13:26.469Z,102348.91
2023-02-11T02:16:37.420Z,102345.03
2023-02-11T02:20:06.009Z,102345.09
2023-02-11T02:23:40.788Z,102345.88
2023-02-11T02:27:02.789Z,102348.87
2023-02-11T02:30:12.902Z,102349.91
2023-02-11T02:33:23.283Z,102350.03
2023-02-11T02:36:37.940Z,102342.37
2023-02-11T02:39:46.993Z,102329.50
2023-02-11T02:42:58.414Z,102329.66
2023-02-11T02:46:20.009Z,102324.50
2023-02-11T02:49:29.568Z,102322.81
2023-02-11T02:52:54.926Z,102328.84
2023-02-11T02:56:05.966Z,102324.59
2023-02-11T02:59:18.628Z,102328.09
2023-02-11T03:02:25.683Z,102323.84
2023-02-11T03:05:39.611Z,102318.69
2023-02-11T03:08:51.293Z,102318.69
2023-02-11T03:11:58.873Z,102319.53
2023-02-11T03:15:09.316Z,102315.09
2023-02-11T03:18:20.053Z,102316.97
2023-02-11T03:21:30.061Z,102313.59
2023-02-11T03:24:38.869Z,102303.28
2023-02-11T03:28:04.630Z,102299.91
2023-02-11T03:31:16.140Z,102294.69
2023-02-11T03:34:36.985Z,102296.47
2023-02-11T03:37:56.878Z,102299.94
2023-02-11T03:41:10.554Z,102293.97
2023-02-11T03:44:21.737Z,102294.03
2023-02-11T03:47:32.208Z,102284.59
2023-02-11T03:50:41.948Z,102270.75
2023-02-11T03:53:55.418Z,102266.44
2023-02-11T03:57:06.006Z,102263.13
2023-02-11T04:00:15.109Z,102264.00
2023-02-11T04:03:25.245Z,102257.09
2023-02-11T04:06:30.147Z,102250.25
2023-02-11T04:09:38.273Z,102249.38
2023-02-11T04:12:47.314Z,102239.06
2023-02-11T04:15:55.089Z,102226.13
2023-02-11T04:19:03.191Z,102225.31
2023-02-11T04:22:13.648Z,102226.19
2023-02-11T04:25:19.818Z,102220.09
2023-02-11T04:28:30.300Z,102219.13
2023-02-11T04:31:38.533Z,102225.25
2023-02-11T04:34:48.654Z,102228.62
2023-02-11T04:37:56.705Z,102230.47
2023-02-11T04:41:06.569Z,102229.63
2023-02-11T04:44:16.887Z,102233.09
2023-02-11T04:47:24.379Z,102222.75
2023-02-11T04:50:29.943Z,102225.31
2023-02-11T04:53:37.028Z,102228.84
2023-02-11T04:56:41.819Z,102230.44
2023-02-11T04:59:52.620Z,102230.50
2023-02-11T05:03:00.906Z,102230.50
2023-02-11T05:06:12.605Z,102228.00
2023-02-11T05:09:19.918Z,102224.59
2023-02-11T05:12:27.750Z,102240.03
2023-02-11T05:15:35.998Z,102242.72
2023-02-11T05:18:45.510Z,102247.03
2023-02-11T05:22:02.481Z,102240.03
2023-02-11T05:25:09.973Z,102246.13
2023-02-11T05:28:16.997Z,102235.75
2023-02-11T05:31:24.781Z,102230.50
2023-02-11T05:34:32.223Z,102230.56
2023-02-11T05:37:40.438Z,102230.44
2023-02-11T05:40:48.876Z,102227.03
2023-02-11T05:43:58.829Z,102224.44
2023-02-11T05:47:07.058Z,102218.50
2023-02-11T05:50:15.692Z,102218.56
2023-02-11T05:53:23.775Z,102211.69
2023-02-11T05:56:30.355Z,102214.09
2023-02-11T05:59:37.444Z,102206.34
2023-02-11T06:02:45.762Z,102218.44
2023-02-11T06:05:53.209Z,102218.62
2023-02-11T06:09:00.136Z,102224.69
2023-02-11T06:12:06.202Z,102221.16
2023-02-11T06:15:13.045Z,102221.22
2023-02-11T06:18:22.883Z,102218.50
2023-02-11T06:21:42.888Z,102214.03
2023-02-11T06:25:01.237Z,102206.13
2023-02-11T06:28:07.613Z,102209.41
2023-02-11T06:31:17.624Z,102208.38
2023-02-11T06:34:26.315Z,102201.91
2023-02-11T06:37:36.785Z,102217.25
2023-02-11T06:40:43.623Z,102211.88
2023-02-11T06:43:55.696Z,102212.38
2023-02-11T06:47:05.379Z,102213.81
2023-02-11T06:50:20.403Z,102203.19
2023-02-11T06:53:26.152Z,102199.50
2023-02-11T06:56:33.676Z,102198.47
2023-02-11T06:59:42.540Z,102205.12
2023-02-11T07:02:50.258Z,102211.06
2023-02-11T07:05:57.236Z,102193.38
2023-02-11T07:09:08.018Z,102205.22
2023-02-11T07:12:18.026Z,102205.84
2023-02-11T07:15:25.453Z,102204.09
2023-02-11T07:18:30.665Z,102204.97
2023-02-11T07:21:37.968Z,102196.94
2023-02-11T07:24:47.628Z,102197.00
2023-02-11T07:27:58.696Z,102193.59
2023-02-11T07:31:12.866Z,102194.72
2023-02-11T07:34:23.289Z,102199.09
2023-02-11T07:37:28.495Z,102184.84
2023-02-11T07:40:38.856Z,102190.53
2023-02-11T07:43:44.858Z,102183.78
2023-02-11T07:46:54.959Z,102192.59
2023-02-11T07:50:02.131Z,102183.59
2023-02-11T07:53:11.321Z,102171.00
2023-02-11T07:56:19.264Z,102167.69
2023-02-11T07:59:26.533Z,102174.81
2023-02-11T08:02:33.349Z,102177.62
2023-02-11T08:05:40.777Z,102165.34
2023-02-11T08:08:50.402Z,102173.91
2023-02-11T08:12:01.272Z,102167.56
2023-02-11T08:15:08.168Z,102165.25
2023-02-11T08:18:18.178Z,102167.66
2023-02-11T08:21:25.769Z,102173.78
2023-02-11T08:24:32.951Z,102168.34
2023-02-11T08:27:39.042Z,102164.66
2023-02-11T08:30:50.044Z,102171.97
2023-02-11T08:34:00.044Z,102171.25
2023-02-11T08:37:11.754Z,102165.03
2023-02-11T08:40:20.471Z,102169.03
2023-02-11T08:43:30.471Z,102168.94
2023-02-11T08:46:37.017Z,102159.25
2023-02-11T08:49:45.773Z,102158.13
2023-02-11T08:52:53.988Z,102162.94
2023-02-11T08:56:03.458Z,102159.25
2023-02-11T08:59:13.869Z,102159.78
2023-02-11T09:02:21.637Z,102158.22
2023-02-11T09:05:26.533Z,102157.59
2023-02-11T09:08:45.281Z,102147.38
2023-02-11T09:11:59.150Z,102149.16
2023-02-11T09:15:11.849Z,102133.12
2023-02-11T09:18:18.314Z,102139.06
2023-02-11T09:21:24.076Z,102138.31
2023-02-11T09:24:30.579Z,102139.63
2023-02-11T09:27:40.980Z,102137.09
2023-02-11T09:30:50.155Z,102131.22
2023-02-11T09:34:01.440Z,102129.25
2023-02-11T09:37:09.494Z,102132.03
2023-02-11T09:40:15.979Z,102125.34
2023-02-11T09:43:24.833Z,102121.41
2023-02-11T09:46:34.676Z,102108.88
2023-02-11T09:49:49.179Z,102121.78
2023-02-11T09:53:01.620Z,102122.56
2023-02-11T09:56:12.454Z,102111.31
2023-02-11T09:59:21.063Z,102106.66
2023-02-11T10:02:29.774Z,102109.94
2023-02-11T10:05:50.397Z,102112.88
2023-02-11T10:09:25.982Z,102102.03
2023-02-11T10:12:47.587Z,102106.16
2023-02-11T10:15:58.783Z,102102.25
2023-02-11T10:19:12.635Z,102093.84
2023-02-11T10:22:18.757Z,102092.72
2023-02-11T10:25:37.826Z,102086.28
2023-02-11T10:28:47.264Z,102073.50
2023-02-11T10:31:56.542Z,102075.69
2023-02-11T10:35:04.404Z,102070.72
2023-02-11T10:38:11.997Z,102069.09
2023-02-11T10:41:23.332Z,102058.56
2023-02-11T10:44:35.087Z,102055.44
2023-02-11T10:47:43.868Z,102048.91
2023-02-11T10:50:54.281Z,102039.13
2023-02-11T10:54:23.763Z,102037.97
2023-02-11T10:57:34.994Z,102038.38
2023-02-11T11:00:45.496Z,102038.91
2023-02-11T11:03:52.694Z,102029.31
2023-02-11T11:07:14.389Z,102020.47
2023-02-11T11:10:50.885Z,102018.22
2023-02-11T11:13:59.365Z,102013.59
2023-02-11T11:17:16.764Z,102000.56
2023-02-11T11:20:28.612Z,102001.22
2023-02-11T11:23:38.509Z,102005.12
2023-02-11T11:26:46.501Z,102000.03
2023-02-11T11:29:58.716Z,101985.03
2023-02-11T11:33:07.292Z,101983.09
2023-02-11T11:36:21.251Z,101981.50
2023-02-11T11:39:32.926Z,101971.19
2023-02-11T11:42:42.571Z,101960.72
2023-02-11T11:45:57.109Z,101958.53
2023-02-11T11:49:15.787Z,101951.47
2023-02-11T11:52:21.211Z,101952.16
2023-02-11T11:55:45.112Z,101939.47
2023-02-11T11:58:55.062Z,101957.22
2023-02-11T12:02:08.426Z,101939.25
2023-02-11T12:05:28.712Z,101941.63
2023-02-11T12:09:08.275Z,101937.50
2023-02-11T12:12:25.076Z,101918.31
2023-02-11T12:15:31.111Z,101922.09
2023-02-11T12:18:47.317Z,101903.53
2023-02-11T12:22:11.073Z,101890.34
2023-02-11T12:25:20.325Z,101880.28
2023-02-11T12:28:40.513Z,101873.75
2023-02-11T12:31:49.219Z,101872.59
2023-02-11T12:35:01.932Z,101865.56
2023-02-11T12:38:18.297Z,101865.03
2023-02-11T12:42:06.097Z,101857.37
2023-02-11T12:45:23.505Z,101865.00
2023-02-11T12:48:35.837Z,101859.59
2023-02-11T12:52:03.985Z,101853.69
2023-02-11T12:55:25.125Z,101846.53
2023-02-11T12:58:45.107Z,101843.09
2023-02-11T13:01:53.275Z,101834.25
2023-02-11T13:05:04.369Z,101834.84
2023-02-11T13:08:24.096Z,101841.22
2023-02-11T13:11:43.103Z,101842.41
2023-02-11T13:14:53.974Z,101828.91
2023-02-11T13:18:07.368Z,101822.00
2023-02-11T13:21:31.877Z,101821.44
2023-02-11T13:24:47.776Z,101810.03
2023-02-11T13:28:01.107Z,101807.16
2023-02-11T13:31:14.731Z,101792.81
2023-02-11T13:34:48.597Z,101795.31
2023-02-11T13:37:55.640Z,101793.44
2023-02-11T13:41:03.731Z,101784.38
2023-02-11T13:44:11.621Z,101786.09
2023-02-11T13:47:31.255Z,101775.81
2023-02-11T13:50:41.794Z,101781.81
2023-02-11T13:53:53.785Z,101793.78
2023-02-11T13:57:19.701Z,101793.81
2023-02-11T14:00:29.801Z,101795.16
2023-02-11T14:03:56.741Z,101799.09
2023-02-11T14:07:51.683Z,101802.25
2023-02-11T14:11:14.693Z,101796.97
2023-02-11T14:14:24.706Z,101784.59
2023-02-11T14:17:41.341Z,101778.69
2023-02-11T14:20:50.111Z,101764.66
2023-02-11T14:24:16.972Z,101774.62
2023-02-11T14:27:30.743Z,101788.75
2023-02-11T14:30:48.227Z,101804.91
2023-02-11T14:34:33.401Z,101811.84
2023-02-11T14:38:03.212Z,101804.53
2023-02-11T14:41:26.703Z,101809.47
2023-02-11T14:44:37.916Z,101812.44
2023-02-11T14:47:46.797Z,101806.13
2023-02-11T14:51:03.139Z,101810.63
2023-02-11T14:54:14.365Z,101807.72
2023-02-11T14:57:23.875Z,101796.78
2023-02-11T15:00:30.883Z,101795.16
2023-02-11T15:03:47.655Z,101780.78
2023-02-11T15:06:55.642Z,101774.88
2023-02-11T15:10:05.786Z,101768.72
2023-02-11T15:13:23.323Z,101767.06
2023-02-11T15:16:32.300Z,101751.56
2023-02-11T15:19:44.430Z,101751.56
2023-02-11T15:22:55.123Z,101752.31
2023-02-11T15:26:06.400Z,101754.63
2023-02-11T15:29:21.073Z,101760.94
2023-02-11T15:32:28.171Z,101749.97
2023-02-11T15:35:42.848Z,101745.25
2023-02-11T15:38:49.425Z,101751.78
2023-02-11T15:42:02.650Z,101739.34
2023-02-11T15:45:22.334Z,101739.59
2023-02-11T15:48:51.941Z,101729.47
2023-02-11T15:52:01.571Z,101731.81
2023-02-11T15:55:10.483Z,101728.16
2023-02-11T15:58:19.044Z,101725.72
2023-02-11T16:01:35.020Z,101725.09
2023-02-11T16:04:55.769Z,101724.31
2023-02-11T16:08:14.553Z,101720.06
2023-02-11T16:11:25.964Z,101712.63
2023-02-11T16:14:32.489Z,101704.66
2023-02-11T16:17:45.277Z,101702.41
2023-02-11T16:20:52.222Z,101704.28
2023-02-11T16:24:00.323Z,101694.37
2023-02-11T16:27:23.626Z,101695.06
2023-02-11T16:30:42.060Z,101689.78
2023-02-11T16:33:54.955Z,101692.50
2023-02-11T16:37:05.368Z,101697.47
2023-02-11T16:40:14.099Z,101701.25
2023-02-11T16:43:23.286Z,101702.09
2023-02-11T16:46:35.255Z,101697.34
2023-02-11T16:49:44.655Z,101699.44
2023-02-11T16:52:53.690Z,101688.56
2023-02-11T16:56:03.594Z,101677.59
2023-02-11T16:59:14.677Z,101698.84
2023-02-11T17:02:25.938Z,101695.97
2023-02-11T17:05:42.718Z,101698.66
2023-02-11T17:08:55.676Z,101699.91
2023-02-11T17:12:03.137Z,101695.03
2023-02-11T17:15:14.128Z,101709.44
2023-02-11T17:18:22.023Z,101702.47
2023-02-11T17:21:30.070Z,101703.06
2023-02-11T17:24:38.389Z,101704.72
2023-02-11T17:27:49.293Z,101709.97
2023-02-11T17:31:00.832Z,101729.91
2023-02-11T17:34:09.056Z,101733.78
2023-02-11T17:37:17.253Z,101723.94
2023-02-11T17:40:27.311Z,101720.06
2023-02-11T17:43:40.937Z,101713.84
2023-02-11T17:46:50.342Z,101711.16
2023-02-11T17:49:59.447Z,101720.84
2023-02-11T17:53:07.256Z,101727.88
2023-02-11T17:56:17.952Z,101699.81
2023-02-11T17:59:25.236Z,101700.53
2023-02-11T18:02:33.769Z,101684.75
2023-02-11T18:05:44.837Z,101685.22
2023-02-11T18:08:57.916Z,101681.41
2023-02-11T18:12:08.946Z,101673.56
2023-02-11T18:15:13.483Z,101685.47
2023-02-11T18:18:22.261Z,101680.31
2023-02-11T18:21:30.374Z,101672.88
2023-02-11T18:24:40.547Z,101673.28
2023-02-11T18:27:51.595Z,101675.00
2023-02-11T18:31:02.400Z,101669.38
2023-02-11T18:34:13.823Z,101671.56
2023-02-11T18:37:22.811Z,101675.81
2023-02-11T18:40:29.654Z,101672.06
2023-02-11T18:43:38.379Z,101664.66
2023-02-11T18:46:43.628Z,101665.41
2023-02-11T18:49:52.041Z,101667.94
2023-02-11T18:52:59.553Z,101676.75
2023-02-11T18:56:14.198Z,101679.50
2023-02-11T18:59:21.158Z,101675.09
2023-02-11T19:02:35.519Z,101677.72
2023-02-11T19:05:44.727Z,101683.41
2023-02-11T19:08:59.347Z,101678.88
2023-02-11T19:12:09.116Z,101681.09
2023-02-11T19:15:17.103Z,101672.16
2023-02-11T19:18:26.068Z,101677.47
2023-02-11T19:21:38.441Z,101670.81
2023-02-11T19:24:44.304Z,101679.81
2023-02-11T19:27:53.626Z,101684.50
2023-02-11T19:31:06.478Z,101686.66
2023-02-11T19:34:17.383Z,101691.56
2023-02-11T19:37:32.353Z,101693.38
2023-02-11T19:40:42.886Z,101682.94
2023-02-11T19:43:54.513Z,101686.59
2023-02-11T19:47:05.284Z,101680.50
2023-02-11T19:50:12.546Z,101686.59
2023-02-11T19:53:21.283Z,101687.25
2023-02-11T19:56:31.130Z,101698.41
2023-02-11T19:59:45.587Z,101687.09
2023-02-11T20:02:52.600Z,101683.53
2023-02-11T20:06:03.654Z,101674.59
2023-02-11T20:09:13.118Z,101672.62
2023-02-11T20:12:22.451Z,101670.00
2023-02-11T20:15:30.909Z,101662.84
2023-02-11T20:18:43.898Z,101661.88
2023-02-11T20:21:56.073Z,101660.47
2023-02-11T20:25:04.435Z,101664.06
2023-02-11T20:28:11.669Z,101674.28
2023-02-11T20:31:19.771Z,101681.13
2023-02-11T20:34:27.664Z,101675.03
2023-02-11T20:37:36.578Z,101656.75
2023-02-11T20:40:45.869Z,101659.19
2023-02-11T20:43:56.819Z,101662.06
2023-02-11T20:47:05.253Z,101654.47
2023-02-11T20:50:13.084Z,101655.25
2023-02-11T20:53:19.536Z,101655.69
2023-02-11T20:56:29.193Z,101654.94
2023-02-11T20:59:37.632Z,101658.69
2023-02-11T21:02:52.271Z,101654.28
2023-02-11T21:06:06.096Z,101656.91
2023-02-11T21:09:16.304Z,101647.97
2023-02-11T21:12:24.887Z,101642.53
2023-02-11T21:15:33.433Z,101648.62
2023-02-11T21:18:42.308Z,101660.56
2023-02-11T21:21:53.848Z,101654.75
2023-02-11T21:25:01.556Z,101659.44
2023-02-11T21:28:08.317Z,101659.53
2023-02-11T21:31:22.526Z,101662.06
2023-02-11T21:34:30.073Z,101657.94
2023-02-11T21:37:37.474Z,101667.25
2023-02-11T21:40:46.023Z,101655.81
2023-02-11T21:43:53.748Z,101662.75
2023-02-11T21:46:58.157Z,101677.66
2023-02-11T21:50:02.830Z,101668.19
2023-02-11T21:53:09.807Z,101646.41
2023-02-11T21:56:18.592Z,101636.00
2023-02-11T21:59:25.007Z,101635.78
2023-02-11T22:02:30.145Z,101657.03
2023-02-11T22:05:36.685Z,101652.38
2023-02-11T22:08:43.653Z,101651.91
2023-02-11T22:11:51.172Z,101663.91
2023-02-11T22:14:58.033Z,101657.81
2023-02-11T22:18:08.214Z,101674.69
2023-02-11T22:21:16.053Z,101660.06
2023-02-11T22:24:24.928Z,101659.84
2023-02-11T22:27:30.075Z,101661.34
2023-02-11T22:30:36.998Z,101660.22
2023-02-11T22:33:47.070Z,101662.38
2023-02-11T22:36:55.575Z,101672.31
2023-02-11T22:40:01.373Z,101660.41
2023-02-11T22:43:08.467Z,101670.81
2023-02-11T22:46:14.878Z,101673.87
2023-02-11T22:49:21.765Z,101670.09
2023-02-11T22:52:25.697Z,101666.06
2023-02-11T22:55:30.954Z,101658.00
2023-02-11T22:58:38.080Z,101665.88
2023-02-11T23:01:43.074Z,101669.69
2023-02-11T23:04:51.103Z,101672.66
2023-02-11T23:08:00.160Z,101682.81
2023-02-11T23:11:12.222Z,101689.81
2023-02-11T23:14:19.443Z,101685.47
2023-02-11T23:17:25.589Z,101700.66
2023-02-11T23:20:31.238Z,101688.44
2023-02-11T23:23:38.041Z,101675.22
2023-02-11T23:26:44.225Z,101677.19
2023-02-11T23:29:50.153Z,101681.69
2023-02-11T23:32:57.982Z,101683.75
2023-02-11T23:36:07.987Z,101683.12
2023-02-11T23:39:19.123Z,101677.59
2023-02-11T23:42:26.810Z,101670.06
2023-02-11T23:45:37.077Z,101674.69
2023-02-11T23:48:45.483Z,101659.66
2023-02-11T23:51:58.595Z,101660.00
2023-02-11T23:55:06.584Z,101655.06
2023-02-11T23:58:14.854Z,101658.53
